Time;durP1;ratioP1;P1;durP2;ratioP2;P2;SDS_P1;SDS_P2;PMS_P1;PMS_P2;Temp;Humidity;BMP_temperature;BMP_pressure;BME280_temperature;BME280_humidity;BME280_pressure;Samples;Min_cycle;Max_cycle;Signal;HPM_P1;HPM_P2
2022/12/10 00:01:12;;;;;;;;;66.67;48.00;;;;;;;;5119852;27;45411;-64
2022/12/10 00:03:38;;;;;;;;;68.00;46.33;;;;;;;;5118920;27;45388;-64
2022/12/10 00:06:08;;;;;;;;;68.67;51.33;;;;;;;;5120053;27;45272;-64
2022/12/10 00:08:33;;;;;;;;;70.67;50.00;;;;;;;;5119751;27;46653;-64
2022/12/10 00:10:59;;;;;;;;;58.00;41.33;;;;;;;;5119787;27;45408;-64
2022/12/10 00:13:24;;;;;;;;;66.67;47.67;;;;;;;;5119833;27;45223;-64
2022/12/10 00:15:49;;;;;;;;;59.00;46.00;;;;;;;;5118051;27;45569;-63
2022/12/10 00:18:14;;;;;;;;;68.00;47.67;;;;;;;;5119731;27;46466;-64
2022/12/10 00:20:39;;;;;;;;;58.67;43.33;;;;;;;;5119575;27;45374;-63
2022/12/10 00:23:05;;;;;;;;;62.33;47.00;;;;;;;;5119799;27;45348;-63
2022/12/10 00:25:31;;;;;;;;;59.00;42.33;;;;;;;;5119891;27;45402;-63
2022/12/10 00:27:56;;;;;;;;;56.67;47.67;;;;;;;;5119209;27;46182;-64
2022/12/10 00:30:22;;;;;;;;;65.67;45.67;;;;;;;;5119170;27;45499;-63
2022/12/10 00:32:47;;;;;;;;;57.67;43.67;;;;;;;;5118763;27;45584;-64
2022/12/10 00:35:12;;;;;;;;;61.33;46.67;;;;;;;;5118931;27;45378;-64
2022/12/10 00:37:37;;;;;;;;;62.00;45.33;;;;;;;;5119291;27;46650;-63
2022/12/10 00:40:03;;;;;;;;;58.67;47.00;;;;;;;;5119336;27;45356;-64
2022/12/10 00:42:28;;;;;;;;;56.00;44.33;;;;;;;;5119407;27;45461;-63
2022/12/10 00:44:53;;;;;;;;;53.67;41.67;;;;;;;;5117529;27;45466;-63
2022/12/10 00:47:18;;;;;;;;;58.33;43.67;;;;;;;;5116266;27;46222;-63
2022/12/10 00:49:43;;;;;;;;;54.33;39.33;;;;;;;;5119061;27;45331;-63
2022/12/10 00:52:09;;;;;;;;;45.00;38.33;;;;;;;;5119274;27;45389;-64
2022/12/10 00:54:34;;;;;;;;;58.33;42.33;;;;;;;;5119468;27;45412;-63
2022/12/10 00:56:59;;;;;;;;;37.00;36.00;;;;;;;;5119200;27;45618;-63
2022/12/10 00:59:24;;;;;;;;;61.67;40.67;;;;;;;;5119102;27;45455;-64
2022/12/10 01:01:49;;;;;;;;;52.33;40.00;;;;;;;;5118200;27;45484;-64
2022/12/10 01:04:16;;;;;;;;;50.67;42.00;;;;;;;;5119193;27;45420;-63
2022/12/10 01:06:44;;;;;;;;;67.33;47.00;;;;;;;;5118754;27;47384;-63
2022/12/10 01:09:11;;;;;;;;;55.33;42.00;;;;;;;;5118816;27;45668;-63
2022/12/10 01:11:38;;;;;;;;;42.33;34.67;;;;;;;;5119021;27;45548;-64
2022/12/10 01:14:04;;;;;;;;;58.67;43.33;;;;;;;;5119044;27;45363;-63
2022/12/10 01:16:29;;;;;;;;;49.33;41.33;;;;;;;;5113352;27;45543;-63
2022/12/10 01:18:55;;;;;;;;;56.67;42.67;;;;;;;;5103335;27;45274;-63
2022/12/10 01:21:21;;;;;;;;;56.00;41.00;;;;;;;;5118723;27;45532;-63
2022/12/10 01:23:48;;;;;;;;;58.33;42.67;;;;;;;;5106872;27;45528;-64
2022/12/10 01:26:18;;;;;;;;;59.67;42.67;;;;;;;;5097878;27;45347;-64
2022/12/10 01:28:43;;;;;;;;;54.33;42.33;;;;;;;;5117440;27;45460;-63
2022/12/10 01:31:10;;;;;;;;;64.33;39.33;;;;;;;;5109256;27;45394;-63
2022/12/10 01:33:36;;;;;;;;;57.00;41.67;;;;;;;;5115282;27;45395;-63
2022/12/10 01:36:03;;;;;;;;;56.67;41.33;;;;;;;;5118287;27;46181;-63
2022/12/10 01:38:28;;;;;;;;;50.00;37.67;;;;;;;;5118504;27;45398;-64
2022/12/10 01:40:53;;;;;;;;;50.00;40.67;;;;;;;;5118485;27;45862;-63
2022/12/10 01:43:18;;;;;;;;;54.67;40.00;;;;;;;;5118824;27;45504;-64
2022/12/10 01:45:44;;;;;;;;;39.00;35.00;;;;;;;;5118086;27;46530;-64
2022/12/10 01:48:09;;;;;;;;;54.67;41.33;;;;;;;;5118173;27;45466;-64
2022/12/10 01:50:34;;;;;;;;;48.00;41.00;;;;;;;;5101845;27;45408;-63
2022/12/10 01:53:00;;;;;;;;;52.67;40.33;;;;;;;;5097757;27;45376;-64
2022/12/10 01:55:38;;;;;;;;;45.67;37.00;;;;;;;;5096638;27;46722;-64
2022/12/10 01:58:03;;;;;;;;;52.67;39.67;;;;;;;;5097778;27;45441;-63
2022/12/10 02:00:28;;;;;;;;;53.00;37.33;;;;;;;;5097305;27;45376;-63
2022/12/10 02:02:59;;;;;;;;;56.00;40.33;;;;;;;;5097839;27;45298;-64
2022/12/10 02:05:30;;;;;;;;;49.33;39.33;;;;;;;;5097242;27;46608;-63
2022/12/10 02:07:55;;;;;;;;;56.00;39.67;;;;;;;;5096827;27;45390;-64
2022/12/10 02:10:29;;;;;;;;;49.67;37.33;;;;;;;;5097604;27;45507;-64
2022/12/10 02:13:13;;;;;;;;;54.00;38.00;;;;;;;;5097711;27;45385;-64
2022/12/10 02:15:43;;;;;;;;;54.00;37.33;;;;;;;;5096752;27;46320;-64
2022/12/10 02:18:11;;;;;;;;;52.67;40.00;;;;;;;;5096980;27;45466;-64
2022/12/10 02:20:41;;;;;;;;;56.67;39.67;;;;;;;;5097421;27;45380;-64
2022/12/10 02:23:11;;;;;;;;;49.67;40.33;;;;;;;;5097104;27;45386;-64
2022/12/10 02:25:36;;;;;;;;;49.67;37.67;;;;;;;;5097176;27;46674;-63
2022/12/10 02:28:05;;;;;;;;;54.67;37.33;;;;;;;;5097150;27;45440;-63
2022/12/10 02:30:32;;;;;;;;;35.00;33.33;;;;;;;;5097109;27;45386;-64
2022/12/10 02:33:00;;;;;;;;;58.00;38.00;;;;;;;;5097193;27;45369;-64
2022/12/10 02:35:28;;;;;;;;;53.67;39.00;;;;;;;;5097006;27;46394;-64
2022/12/10 02:37:57;;;;;;;;;54.67;40.67;;;;;;;;5096928;27;45513;-64
2022/12/10 02:40:24;;;;;;;;;56.67;40.00;;;;;;;;5096728;27;45398;-64
2022/12/10 02:42:51;;;;;;;;;46.00;39.67;;;;;;;;5097209;27;45378;-64
2022/12/10 02:45:17;;;;;;;;;46.67;36.67;;;;;;;;5096786;27;46921;-64
2022/12/10 02:47:42;;;;;;;;;53.00;40.00;;;;;;;;5096843;27;45508;-63
2022/12/10 02:50:09;;;;;;;;;54.67;41.00;;;;;;;;5096705;27;45413;-64
2022/12/10 02:52:34;;;;;;;;;36.67;32.67;;;;;;;;5097102;27;45439;-63
2022/12/10 02:55:00;;;;;;;;;54.00;41.00;;;;;;;;5099829;27;46776;-63
2022/12/10 02:57:40;;;;;;;;;58.33;41.33;;;;;;;;5114357;27;45546;-64
2022/12/10 03:00:08;;;;;;;;;54.33;40.67;;;;;;;;5115599;27;45416;-63
2022/12/10 03:02:41;;;;;;;;;52.00;40.00;;;;;;;;5116785;27;45594;-63
2022/12/10 03:05:06;;;;;;;;;50.00;38.67;;;;;;;;5120476;27;46513;-63
2022/12/10 03:07:46;;;;;;;;;56.67;40.00;;;;;;;;5120587;27;45459;-63
2022/12/10 03:10:34;;;;;;;;;43.33;35.00;;;;;;;;5120291;27;45485;-64
2022/12/10 03:13:02;;;;;;;;;57.67;40.00;;;;;;;;5036622;28;45279;-63
2022/12/10 03:15:29;;;;;;;;;51.33;38.33;;;;;;;;5036471;28;46228;-63
2022/12/10 03:17:55;;;;;;;;;58.00;39.67;;;;;;;;5035829;28;45483;-63
2022/12/10 03:20:21;;;;;;;;;58.67;37.33;;;;;;;;5037312;28;45254;-63
2022/12/10 03:22:48;;;;;;;;;52.00;38.00;;;;;;;;5036632;28;45288;-63
2022/12/10 03:25:16;;;;;;;;;58.00;42.33;;;;;;;;5036691;28;46546;-64
2022/12/10 03:27:42;;;;;;;;;57.33;36.67;;;;;;;;5036901;28;45571;-63
2022/12/10 03:30:07;;;;;;;;;53.00;37.67;;;;;;;;5036716;28;45290;-63
2022/12/10 03:32:33;;;;;;;;;48.33;39.33;;;;;;;;5036871;28;45503;-63
2022/12/10 03:34:59;;;;;;;;;50.00;39.00;;;;;;;;5035900;28;46793;-63
2022/12/10 03:37:26;;;;;;;;;56.00;40.00;;;;;;;;5036380;28;45424;-63
2022/12/10 03:39:52;;;;;;;;;55.33;40.67;;;;;;;;5036806;28;45516;-63
2022/12/10 03:42:17;;;;;;;;;53.33;39.33;;;;;;;;5036643;28;45501;-63
2022/12/10 03:44:43;;;;;;;;;56.00;42.67;;;;;;;;5036390;28;45381;-63
2022/12/10 03:47:10;;;;;;;;;48.00;40.33;;;;;;;;5036254;28;45386;-63
2022/12/10 03:49:35;;;;;;;;;52.00;41.00;;;;;;;;5062225;27;45497;-63
2022/12/10 03:52:00;;;;;;;;;56.00;42.33;;;;;;;;5120497;27;45279;-63
2022/12/10 03:54:25;;;;;;;;;62.33;39.00;;;;;;;;5119955;27;45372;-63
2022/12/10 03:56:51;;;;;;;;;43.00;34.67;;;;;;;;5120332;27;45398;-63
2022/12/10 03:59:16;;;;;;;;;54.00;40.33;;;;;;;;5119846;27;45477;-63
2022/12/10 04:01:41;;;;;;;;;52.67;36.67;;;;;;;;5120130;27;45375;-63
2022/12/10 04:04:07;;;;;;;;;58.00;38.67;;;;;;;;5119995;27;45322;-63
2022/12/10 04:06:32;;;;;;;;;54.67;39.00;;;;;;;;5119213;27;45803;-63
2022/12/10 04:08:57;;;;;;;;;56.67;36.67;;;;;;;;5120162;27;45405;-63
2022/12/10 04:11:23;;;;;;;;;46.33;36.00;;;;;;;;5118823;27;45363;-64
2022/12/10 04:16:32;;;;;;;;;57.33;40.00;;;;;;;;5119808;27;45343;-64
2022/12/10 04:18:57;;;;;;;;;46.33;34.33;;;;;;;;5117947;27;45441;-63
2022/12/10 04:26:55;;;;;;;;;40.67;36.00;;;;;;;;5119551;27;45303;-63
2022/12/10 04:29:22;;;;;;;;;54.67;40.00;;;;;;;;5119530;27;45447;-63
2022/12/10 04:31:47;;;;;;;;;31.33;30.00;;;;;;;;5119580;27;45487;-63
2022/12/10 04:34:12;;;;;;;;;43.33;34.67;;;;;;;;5119199;27;46011;-63
2022/12/10 04:36:38;;;;;;;;;40.33;31.67;;;;;;;;5118558;27;45315;-63
2022/12/10 04:39:03;;;;;;;;;47.33;38.00;;;;;;;;5119166;27;45293;-63
2022/12/10 04:41:29;;;;;;;;;39.33;31.33;;;;;;;;5119389;27;45304;-63
2022/12/10 04:43:54;;;;;;;;;36.67;31.67;;;;;;;;5119010;27;45487;-63
2022/12/10 04:46:19;;;;;;;;;50.00;34.00;;;;;;;;5119484;27;45404;-63
2022/12/10 04:48:44;;;;;;;;;38.00;28.33;;;;;;;;5118884;27;45339;-63
2022/12/10 04:51:09;;;;;;;;;33.33;26.67;;;;;;;;5117891;27;45428;-63
2022/12/10 04:53:35;;;;;;;;;51.33;41.33;;;;;;;;5119204;27;46439;-63
2022/12/10 04:56:01;;;;;;;;;34.00;25.33;;;;;;;;5118833;27;45650;-63
2022/12/10 04:58:30;;;;;;;;;36.00;29.67;;;;;;;;5118743;27;45366;-63
2022/12/10 05:01:00;;;;;;;;;39.67;33.00;;;;;;;;5119247;27;45337;-63
2022/12/10 05:03:25;;;;;;;;;44.00;28.00;;;;;;;;5118611;27;45806;-63
2022/12/10 05:05:50;;;;;;;;;47.00;31.00;;;;;;;;5098307;27;45761;-63
2022/12/10 05:08:16;;;;;;;;;43.00;30.00;;;;;;;;5112579;27;45734;-63
2022/12/10 05:10:41;;;;;;;;;33.33;28.67;;;;;;;;5119175;27;45389;-63
2022/12/10 05:13:06;;;;;;;;;30.33;28.33;;;;;;;;5118703;27;45422;-63
2022/12/10 05:15:31;;;;;;;;;35.33;22.00;;;;;;;;5118884;27;45866;-63
2022/12/10 05:17:56;;;;;;;;;34.00;27.67;;;;;;;;5118826;27;45516;-63
2022/12/10 05:20:22;;;;;;;;;31.00;22.67;;;;;;;;5118290;27;45355;-63
2022/12/10 05:25:31;;;;;;;;;29.00;22.00;;;;;;;;5098306;27;45454;-63
2022/12/10 05:27:56;;;;;;;;;40.67;27.67;;;;;;;;5098118;27;45429;-63
2022/12/10 05:30:21;;;;;;;;;33.33;23.67;;;;;;;;5098302;27;45461;-63
2022/12/10 05:32:46;;;;;;;;;39.33;28.33;;;;;;;;5115815;27;46750;-63
2022/12/10 05:35:12;;;;;;;;;28.67;24.00;;;;;;;;5118441;27;45335;-63
2022/12/10 05:37:37;;;;;;;;;42.33;25.33;;;;;;;;5118157;27;45599;-63
2022/12/10 05:40:03;;;;;;;;;32.00;25.00;;;;;;;;5116785;27;45401;-63
2022/12/10 05:42:28;;;;;;;;;33.33;24.33;;;;;;;;5117722;27;46051;-63
2022/12/10 05:44:53;;;;;;;;;31.33;21.00;;;;;;;;5117912;27;45467;-63
2022/12/10 05:47:18;;;;;;;;;34.67;22.00;;;;;;;;5118228;27;45468;-63
2022/12/10 05:49:43;;;;;;;;;35.33;25.33;;;;;;;;5118298;27;45381;-63
2022/12/10 05:52:08;;;;;;;;;38.33;26.00;;;;;;;;5118133;27;45478;-63
2022/12/10 05:54:34;;;;;;;;;39.00;30.67;;;;;;;;5118136;27;45434;-63
2022/12/10 05:56:59;;;;;;;;;44.33;31.67;;;;;;;;5106471;27;45505;-63
2022/12/10 05:59:24;;;;;;;;;40.33;30.33;;;;;;;;5104873;27;45504;-63
2022/12/10 06:01:50;;;;;;;;;41.33;32.00;;;;;;;;5117169;27;46423;-63
2022/12/10 06:04:15;;;;;;;;;30.67;24.00;;;;;;;;5117285;27;45425;-62
2022/12/10 06:06:40;;;;;;;;;37.00;29.33;;;;;;;;5117730;27;45331;-62
2022/12/10 06:09:07;;;;;;;;;42.00;34.00;;;;;;;;5117673;27;45310;-61
2022/12/10 06:11:32;;;;;;;;;38.00;25.33;;;;;;;;5117313;27;46467;-62
2022/12/10 06:13:58;;;;;;;;;39.67;32.00;;;;;;;;5110570;27;45500;-62
2022/12/10 06:16:24;;;;;;;;;40.00;30.00;;;;;;;;5113250;27;45342;-62
2022/12/10 06:18:49;;;;;;;;;37.33;30.00;;;;;;;;5117900;27;45458;-62
2022/12/10 06:21:16;;;;;;;;;44.33;33.33;;;;;;;;5117364;27;46540;-62
2022/12/10 06:23:41;;;;;;;;;41.00;32.00;;;;;;;;5117340;27;45775;-62
2022/12/10 06:26:08;;;;;;;;;47.67;31.67;;;;;;;;5117953;27;45423;-62
2022/12/10 06:28:33;;;;;;;;;56.33;36.33;;;;;;;;5116745;27;45404;-62
2022/12/10 06:30:59;;;;;;;;;40.33;33.67;;;;;;;;5114513;27;45431;-62
2022/12/10 06:33:24;;;;;;;;;43.33;34.00;;;;;;;;5117344;27;45399;-63
2022/12/10 06:35:49;;;;;;;;;36.00;26.00;;;;;;;;5120534;27;45776;-63
2022/12/10 06:38:15;;;;;;;;;36.33;27.00;;;;;;;;5120958;27;45433;-64
2022/12/10 06:40:40;;;;;;;;;38.00;32.33;;;;;;;;5120555;27;46331;-63
2022/12/10 06:43:05;;;;;;;;;32.67;28.33;;;;;;;;5120888;27;45759;-63
2022/12/10 06:45:30;;;;;;;;;46.00;31.67;;;;;;;;5117343;27;45402;-63
2022/12/10 06:47:56;;;;;;;;;33.00;28.33;;;;;;;;5120784;27;45411;-63
2022/12/10 06:50:21;;;;;;;;;39.33;30.67;;;;;;;;5120825;27;46182;-63
2022/12/10 06:52:46;;;;;;;;;34.33;28.33;;;;;;;;5120544;27;45767;-63
2022/12/10 06:55:11;;;;;;;;;27.67;22.00;;;;;;;;5121144;27;45454;-62
2022/12/10 06:57:36;;;;;;;;;22.00;17.33;;;;;;;;5118828;27;45892;-63
2022/12/10 07:00:02;;;;;;;;;33.33;25.67;;;;;;;;5120257;27;46130;-63
2022/12/10 07:02:27;;;;;;;;;37.00;30.67;;;;;;;;5120563;27;45738;-64
2022/12/10 07:04:56;;;;;;;;;38.00;26.00;;;;;;;;5120354;27;46536;-63
2022/12/10 07:07:21;;;;;;;;;23.67;21.67;;;;;;;;5120049;27;45475;-64
2022/12/10 07:09:46;;;;;;;;;33.00;25.00;;;;;;;;5119477;27;45424;-64
2022/12/10 07:12:11;;;;;;;;;35.33;24.33;;;;;;;;5118260;27;45421;-64
2022/12/10 07:14:37;;;;;;;;;29.00;27.33;;;;;;;;5115294;27;46505;-64
2022/12/10 07:17:02;;;;;;;;;35.67;28.00;;;;;;;;5117838;27;45426;-63
2022/12/10 07:19:27;;;;;;;;;37.67;30.33;;;;;;;;5120012;27;45439;-63
2022/12/10 07:21:52;;;;;;;;;39.00;30.33;;;;;;;;5119065;27;45428;-64
2022/12/10 07:24:18;;;;;;;;;41.67;28.33;;;;;;;;5119827;27;45497;-63
2022/12/10 07:26:44;;;;;;;;;37.00;30.67;;;;;;;;5120165;27;45541;-63
2022/12/10 07:29:13;;;;;;;;;29.67;28.33;;;;;;;;5119476;27;46343;-63
2022/12/10 07:31:38;;;;;;;;;38.33;30.33;;;;;;;;5116702;27;45394;-63
2022/12/10 07:34:04;;;;;;;;;45.00;31.67;;;;;;;;5119758;27;45502;-63
2022/12/10 07:36:29;;;;;;;;;35.67;26.00;;;;;;;;5119651;27;45444;-64
2022/12/10 07:38:55;;;;;;;;;43.67;37.00;;;;;;;;5119868;27;46557;-63
2022/12/10 07:41:21;;;;;;;;;48.67;31.33;;;;;;;;5119713;27;45457;-63
2022/12/10 07:43:46;;;;;;;;;41.33;36.67;;;;;;;;5119430;27;45411;-64
2022/12/10 07:46:11;;;;;;;;;44.33;34.33;;;;;;;;5119622;27;45379;-63
2022/12/10 07:48:38;;;;;;;;;52.00;38.00;;;;;;;;5118390;27;46484;-63
2022/12/10 07:51:03;;;;;;;;;41.33;29.33;;;;;;;;5119359;27;45390;-63
2022/12/10 07:53:28;;;;;;;;;55.00;40.00;;;;;;;;5117880;27;45422;-62
2022/12/10 07:55:54;;;;;;;;;50.67;34.67;;;;;;;;5119498;27;45473;-63
2022/12/10 07:58:19;;;;;;;;;36.33;25.33;;;;;;;;5119370;27;45333;-62
2022/12/10 08:00:44;;;;;;;;;48.33;36.67;;;;;;;;5119245;27;45500;-63
2022/12/10 08:03:10;;;;;;;;;31.00;29.33;;;;;;;;5118638;27;45405;-64
2022/12/10 08:05:35;;;;;;;;;53.33;38.00;;;;;;;;5119284;27;45355;-63
2022/12/10 08:08:00;;;;;;;;;47.00;29.00;;;;;;;;5118638;27;45464;-63
2022/12/10 08:10:25;;;;;;;;;37.00;30.67;;;;;;;;5118744;27;45465;-64
2022/12/10 08:12:51;;;;;;;;;52.33;39.00;;;;;;;;5119453;27;45425;-65
2022/12/10 08:15:16;;;;;;;;;50.33;39.33;;;;;;;;5119531;27;46281;-62
2022/12/10 08:17:41;;;;;;;;;48.33;35.00;;;;;;;;5115882;27;46215;-64
2022/12/10 08:20:07;;;;;;;;;50.33;39.00;;;;;;;;5118170;27;45444;-64
2022/12/10 08:22:34;;;;;;;;;42.00;33.00;;;;;;;;5118520;27;45515;-64
2022/12/10 08:24:59;;;;;;;;;46.00;36.00;;;;;;;;5118727;27;45536;-64
2022/12/10 08:27:24;;;;;;;;;50.33;36.00;;;;;;;;5118737;27;45484;-64
2022/12/10 08:29:49;;;;;;;;;36.67;31.33;;;;;;;;5118660;27;45387;-64
2022/12/10 08:32:14;;;;;;;;;46.00;34.00;;;;;;;;5118572;27;45480;-64
2022/12/10 08:34:40;;;;;;;;;41.67;32.67;;;;;;;;5119279;27;45282;-64
2022/12/10 08:37:05;;;;;;;;;41.00;29.33;;;;;;;;5117375;27;45496;-64
2022/12/10 08:39:30;;;;;;;;;39.67;33.67;;;;;;;;5118616;27;45370;-63
2022/12/10 08:41:55;;;;;;;;;39.67;31.67;;;;;;;;5118799;27;45451;-63
2022/12/10 08:44:20;;;;;;;;;49.00;32.67;;;;;;;;5119255;27;45502;-64
2022/12/10 08:46:45;;;;;;;;;38.33;32.33;;;;;;;;5118258;27;45655;-64
2022/12/10 08:49:11;;;;;;;;;34.00;28.00;;;;;;;;5118287;27;45740;-64
2022/12/10 08:51:39;;;;;;;;;33.67;30.00;;;;;;;;5117135;27;45480;-65
2022/12/10 08:54:04;;;;;;;;;43.67;31.33;;;;;;;;5118626;27;45737;-64
2022/12/10 08:56:30;;;;;;;;;45.33;33.33;;;;;;;;5117498;27;45924;-64
2022/12/10 08:58:55;;;;;;;;;33.33;30.33;;;;;;;;5115316;27;45428;-64
2022/12/10 09:01:21;;;;;;;;;38.33;32.33;;;;;;;;5118304;27;45459;-63
2022/12/10 09:03:46;;;;;;;;;36.67;30.00;;;;;;;;5118615;27;45415;-63
2022/12/10 09:06:14;;;;;;;;;34.33;31.00;;;;;;;;5118043;27;46025;-63
2022/12/10 09:08:39;;;;;;;;;42.33;34.00;;;;;;;;5115727;27;45454;-63
2022/12/10 09:11:09;;;;;;;;;53.00;42.00;;;;;;;;5118396;27;45334;-63
2022/12/10 09:13:34;;;;;;;;;45.00;37.67;;;;;;;;5118461;27;45750;-64
2022/12/10 09:15:59;;;;;;;;;39.33;30.00;;;;;;;;5117757;27;46341;-63
2022/12/10 09:18:24;;;;;;;;;34.00;30.33;;;;;;;;5117985;27;45505;-62
2022/12/10 09:20:50;;;;;;;;;72.33;58.33;;;;;;;;5118981;27;45389;-63
2022/12/10 09:23:15;;;;;;;;;36.67;29.00;;;;;;;;5117300;27;45716;-63
2022/12/10 09:25:40;;;;;;;;;47.67;34.67;;;;;;;;5116707;27;46489;-63
2022/12/10 09:28:05;;;;;;;;;43.33;35.67;;;;;;;;5116911;27;45387;-63
2022/12/10 09:30:31;;;;;;;;;47.33;32.67;;;;;;;;5116901;27;45275;-64
2022/12/10 09:32:56;;;;;;;;;45.00;38.33;;;;;;;;5117295;27;45251;-63
2022/12/10 09:35:21;;;;;;;;;37.33;34.33;;;;;;;;5115817;27;45608;-63
2022/12/10 09:37:46;;;;;;;;;43.33;36.67;;;;;;;;5116443;27;45488;-63
2022/12/10 09:40:16;;;;;;;;;34.67;30.00;;;;;;;;5116313;27;45233;-63
2022/12/10 09:43:00;;;;;;;;;40.33;33.00;;;;;;;;5116972;27;45479;-64
2022/12/10 09:45:25;;;;;;;;;47.00;33.67;;;;;;;;5114519;27;47314;-64
2022/12/10 09:48:09;;;;;;;;;31.67;27.67;;;;;;;;5116931;27;45436;-63
2022/12/10 09:50:53;;;;;;;;;31.00;27.33;;;;;;;;5116898;27;45507;-63
2022/12/10 09:53:19;;;;;;;;;44.67;32.33;;;;;;;;5116693;27;45286;-64
2022/12/10 09:55:46;;;;;;;;;45.67;34.00;;;;;;;;5116356;27;46329;-64
2022/12/10 09:58:25;;;;;;;;;42.67;33.33;;;;;;;;5116587;27;45408;-64
2022/12/10 10:00:58;;;;;;;;;48.00;38.00;;;;;;;;5115005;27;45442;-62
2022/12/10 10:03:24;;;;;;;;;44.00;34.00;;;;;;;;5110304;27;46643;-64
2022/12/10 10:05:51;;;;;;;;;40.67;33.67;;;;;;;;5113360;27;45424;-64
2022/12/10 10:08:25;;;;;;;;;39.33;33.00;;;;;;;;5109952;27;45457;-64
2022/12/10 10:10:50;;;;;;;;;53.33;41.33;;;;;;;;5112049;27;45521;-64
2022/12/10 10:13:17;;;;;;;;;38.67;35.33;;;;;;;;5109522;27;46352;-63
2022/12/10 10:15:43;;;;;;;;;43.33;35.00;;;;;;;;5113970;27;45798;-63
2022/12/10 10:18:22;;;;;;;;;45.00;37.00;;;;;;;;5111240;27;45459;-64
2022/12/10 10:20:48;;;;;;;;;61.33;44.00;;;;;;;;5111472;27;45440;-63
2022/12/10 10:23:14;;;;;;;;;52.67;39.00;;;;;;;;5069035;27;1208410;-64
2022/12/10 10:25:40;;;;;;;;;34.67;28.00;;;;;;;;5112436;27;45927;-64
2022/12/10 10:28:05;;;;;;;;;47.67;37.67;;;;;;;;5109167;27;45586;-64
2022/12/10 10:30:30;;;;;;;;;36.00;30.33;;;;;;;;5107850;27;45574;-64
2022/12/10 10:32:56;;;;;;;;;41.67;39.33;;;;;;;;5112143;27;45774;-64
2022/12/10 10:35:28;;;;;;;;;42.00;36.00;;;;;;;;5115903;27;45524;-61
2022/12/10 10:37:59;;;;;;;;;49.33;37.67;;;;;;;;5108531;27;46659;-61
2022/12/10 10:40:27;;;;;;;;;60.33;48.33;;;;;;;;5102355;27;45590;-61
2022/12/10 10:42:54;;;;;;;;;56.33;41.67;;;;;;;;5110081;27;45743;-62
2022/12/10 10:45:28;;;;;;;;;40.00;35.33;;;;;;;;5112862;27;46220;-61
2022/12/10 10:48:05;;;;;;;;;50.00;37.00;;;;;;;;5127216;27;45379;-61
2022/12/10 10:50:30;;;;;;;;;37.67;34.00;;;;;;;;5116878;27;45452;-62
2022/12/10 10:52:55;;;;;;;;;55.67;38.67;;;;;;;;5118541;27;45648;-61
2022/12/10 10:55:36;;;;;;;;;52.67;39.67;;;;;;;;5114070;27;46505;-64
2022/12/10 10:58:01;;;;;;;;;42.33;35.67;;;;;;;;5115258;27;45336;-62
2022/12/10 11:00:27;;;;;;;;;41.67;32.67;;;;;;;;5115915;27;45381;-62
2022/12/10 11:02:52;;;;;;;;;51.00;39.67;;;;;;;;5111194;27;46030;-62
2022/12/10 11:05:23;;;;;;;;;38.33;29.00;;;;;;;;5115138;27;46559;-62
2022/12/10 11:07:56;;;;;;;;;55.67;43.67;;;;;;;;5110922;27;45565;-62
2022/12/10 11:10:23;;;;;;;;;48.00;38.33;;;;;;;;5115915;27;45374;-62
2022/12/10 11:13:14;;;;;;;;;45.67;33.00;;;;;;;;5114231;27;45410;-63
2022/12/10 11:15:40;;;;;;;;;45.00;35.00;;;;;;;;5107582;27;46726;-63
2022/12/10 11:18:22;;;;;;;;;48.67;37.33;;;;;;;;5108375;27;45586;-65
2022/12/10 11:20:58;;;;;;;;;43.00;34.33;;;;;;;;5117506;27;45437;-66
2022/12/10 11:23:27;;;;;;;;;43.00;34.33;;;;;;;;5117699;27;45419;-67
2022/12/10 11:26:07;;;;;;;;;45.67;29.67;;;;;;;;5117186;27;45864;-66
2022/12/10 11:28:41;;;;;;;;;41.00;36.67;;;;;;;;5121113;27;45485;-66
2022/12/10 11:31:17;;;;;;;;;49.33;39.00;;;;;;;;5133600;27;45340;-66
2022/12/10 11:33:53;;;;;;;;;44.67;36.33;;;;;;;;5138989;27;45423;-66
2022/12/10 11:36:21;;;;;;;;;37.67;33.00;;;;;;;;5099582;27;46321;-66
2022/12/10 11:38:52;;;;;;;;;43.33;36.33;;;;;;;;5099568;27;45261;-65
2022/12/10 11:41:36;;;;;;;;;43.00;22.67;;;;;;;;5099307;27;45289;-66
2022/12/10 11:44:10;;;;;;;;;41.00;31.67;;;;;;;;5102243;27;46360;-66
2022/12/10 11:46:51;;;;;;;;;38.00;33.33;;;;;;;;5117138;27;45735;-64
2022/12/10 11:49:22;;;;;;;;;40.67;34.33;;;;;;;;5112032;27;45401;-63
2022/12/10 11:51:47;;;;;;;;;43.33;34.67;;;;;;;;5112855;27;45560;-64
2022/12/10 11:54:18;;;;;;;;;48.00;36.33;;;;;;;;5112135;27;45393;-63
2022/12/10 11:56:44;;;;;;;;;43.67;33.00;;;;;;;;5118592;27;46370;-64
2022/12/10 11:59:13;;;;;;;;;34.00;30.33;;;;;;;;5118373;27;45567;-64
2022/12/10 12:01:59;;;;;;;;;44.33;36.33;;;;;;;;5118949;27;45522;-63
2022/12/10 12:04:24;;;;;;;;;44.33;37.33;;;;;;;;5116728;27;45484;-64
2022/12/10 12:06:49;;;;;;;;;41.33;33.33;;;;;;;;5117968;27;46290;-64
2022/12/10 12:09:33;;;;;;;;;41.00;35.00;;;;;;;;5113890;27;45388;-65
2022/12/10 12:12:04;;;;;;;;;53.67;44.33;;;;;;;;5118011;27;45476;-65
2022/12/10 12:14:34;;;;;;;;;44.00;36.67;;;;;;;;5112483;27;45388;-64
2022/12/10 12:16:59;;;;;;;;;56.00;35.00;;;;;;;;5118533;27;45788;-64
2022/12/10 12:19:45;;;;;;;;;43.67;38.67;;;;;;;;5118975;27;45545;-63
2022/12/10 12:22:25;;;;;;;;;45.33;34.00;;;;;;;;5111524;27;45349;-64
2022/12/10 12:24:53;;;;;;;;;40.00;37.00;;;;;;;;5119128;27;45412;-63
2022/12/10 12:27:21;;;;;;;;;38.33;31.00;;;;;;;;5117648;27;46016;-68
2022/12/10 12:29:56;;;;;;;;;39.00;33.00;;;;;;;;5118671;27;45326;-66
2022/12/10 12:32:26;;;;;;;;;40.00;33.00;;;;;;;;5115465;27;45386;-64
2022/12/10 12:35:02;;;;;;;;;38.00;35.00;;;;;;;;5118629;27;45556;-64
2022/12/10 12:37:32;;;;;;;;;41.33;35.33;;;;;;;;5115434;27;48124;-63
2022/12/10 12:40:04;;;;;;;;;50.00;37.00;;;;;;;;5118021;27;45452;-63
2022/12/10 12:42:32;;;;;;;;;38.67;36.33;;;;;;;;5117483;27;45459;-62
2022/12/10 12:45:02;;;;;;;;;41.67;35.67;;;;;;;;5118843;27;45233;-63
2022/12/10 12:47:57;;;;;;;;;51.00;38.67;;;;;;;;5117357;27;46510;-64
2022/12/10 12:50:41;;;;;;;;;40.00;37.67;;;;;;;;5074829;28;45935;-63
2022/12/10 12:53:09;;;;;;;;;51.00;36.67;;;;;;;;5072920;28;45465;-64
2022/12/10 12:55:46;;;;;;;;;50.33;39.33;;;;;;;;5074883;28;45509;-65
2022/12/10 12:58:30;;;;;;;;;32.33;31.33;;;;;;;;5074309;28;46298;-66
2022/12/10 13:00:58;;;;;;;;;42.67;36.67;;;;;;;;5074601;28;45394;-64
2022/12/10 13:03:32;;;;;;;;;40.67;31.67;;;;;;;;5074966;28;45410;-63
2022/12/10 13:06:19;;;;;;;;;35.33;31.00;;;;;;;;5062236;28;45358;-64
2022/12/10 13:08:45;;;;;;;;;40.33;37.33;;;;;;;;5074474;28;45526;-62
2022/12/10 13:11:10;;;;;;;;;52.33;38.67;;;;;;;;5076718;27;45473;-63
2022/12/10 13:13:39;;;;;;;;;42.67;38.33;;;;;;;;5073628;28;45412;-64
2022/12/10 13:16:23;;;;;;;;;39.00;35.33;;;;;;;;5078292;27;45489;-64
2022/12/10 13:19:08;;;;;;;;;41.00;35.67;;;;;;;;5074586;28;46598;-63
2022/12/10 13:21:33;;;;;;;;;40.00;35.33;;;;;;;;5072493;27;45492;-63
2022/12/10 13:24:06;;;;;;;;;36.33;35.33;;;;;;;;5074363;28;45292;-63
2022/12/10 13:26:31;;;;;;;;;46.00;35.67;;;;;;;;5084074;27;45388;-63
2022/12/10 13:29:12;;;;;;;;;35.67;31.00;;;;;;;;5117068;27;45811;-63
2022/12/10 13:31:37;;;;;;;;;29.33;28.67;;;;;;;;5118139;27;45853;-64
2022/12/10 13:34:03;;;;;;;;;40.33;33.00;;;;;;;;5124325;27;45230;-63
2022/12/10 13:36:34;;;;;;;;;61.67;46.00;;;;;;;;5129720;27;45444;-63
2022/12/10 13:39:02;;;;;;;;;49.67;38.00;;;;;;;;5110077;27;46452;-63
2022/12/10 13:44:38;;;;;;;;;41.33;34.00;;;;;;;;5117041;27;45397;-64
2022/12/10 13:47:12;;;;;;;;;39.00;32.67;;;;;;;;5074993;27;45480;-61
2022/12/10 13:49:49;;;;;;;;;30.67;25.00;;;;;;;;5082929;27;45577;-63
2022/12/10 13:52:18;;;;;;;;;55.00;41.33;;;;;;;;5073957;28;45622;-64
2022/12/10 13:54:55;;;;;;;;;44.33;36.33;;;;;;;;5074280;28;45818;-64
2022/12/10 13:57:23;;;;;;;;;41.67;36.00;;;;;;;;5074115;28;45444;-63
2022/12/10 14:00:07;;;;;;;;;30.67;29.00;;;;;;;;5074029;28;46144;-63
2022/12/10 14:02:34;;;;;;;;;49.00;39.33;;;;;;;;5074049;28;45432;-63
2022/12/10 14:05:32;;;;;;;;;46.00;38.00;;;;;;;;5073783;28;45333;-63
2022/12/10 14:07:59;;;;;;;;;39.67;34.33;;;;;;;;4974573;28;45384;-62
2022/12/10 14:10:28;;;;;;;;;53.67;42.00;;;;;;;;4974062;28;46587;-63
2022/12/10 14:12:54;;;;;;;;;35.33;30.00;;;;;;;;4959085;28;45678;-63
2022/12/10 14:15:22;;;;;;;;;41.67;36.00;;;;;;;;4968237;28;45421;-63
2022/12/10 14:17:49;;;;;;;;;44.00;33.67;;;;;;;;4969250;28;45562;-64
2022/12/10 14:20:16;;;;;;;;;50.00;38.00;;;;;;;;4970361;28;46059;-64
2022/12/10 14:22:45;;;;;;;;;42.67;30.33;;;;;;;;4969201;28;45630;-63
2022/12/10 14:25:13;;;;;;;;;49.67;35.00;;;;;;;;5025733;28;45438;-63
2022/12/10 14:27:38;;;;;;;;;43.00;37.33;;;;;;;;5033541;28;45389;-64
2022/12/10 14:30:06;;;;;;;;;44.67;36.33;;;;;;;;5014495;28;45460;-64
2022/12/10 14:32:33;;;;;;;;;55.33;43.00;;;;;;;;5013569;28;45453;-64
2022/12/10 14:34:59;;;;;;;;;55.33;42.67;;;;;;;;5009041;28;45493;-64